Terminal Aerodrome Forecast
Issued by NWS

Home | Current Version | Previous Version | Text Only | Print | Product List | Glossary On
Versions: 1 2 3 4 5 6 7 8 9 10 11 12 13
000
FTUS42 TJSJ 232339
TAFJPS
TAF
TJPS 232339Z 2400/2424 05004KT P6SM FEW030
     FM241500 16012KT P6SM FEW030 SCT060
     FM241800 15010KT P6SM VCTS SCT030CB SCT060
     FM242100 13008KT P6SM VCSH SCT030 SCT060
      AMD NOT SKED TIL 240300=

USA.gov is the U.S. government's official web portal to all federal, state and local government web resources and services.